createdAt,value
2023-08-06T00:01:40.118Z,5.90
2023-08-06T00:04:13.059Z,5.90
2023-08-06T00:06:42.459Z,5.60
2023-08-06T00:09:15.975Z,6.30
2023-08-06T00:11:49.269Z,6.50
2023-08-06T00:14:19.684Z,6.40
2023-08-06T00:16:48.278Z,6.40
2023-08-06T00:19:17.671Z,6.20
2023-08-06T00:21:52.148Z,6.30
2023-08-06T00:24:41.776Z,6.40
2023-08-06T00:27:15.172Z,6.30
2023-08-06T00:30:02.396Z,6.40
2023-08-06T00:32:43.047Z,6.30
2023-08-06T00:35:13.668Z,6.20
2023-08-06T00:37:45.410Z,6.40
2023-08-06T00:40:18.259Z,6.80
2023-08-06T00:42:48.370Z,7.00
2023-08-06T00:45:24.636Z,6.40
2023-08-06T00:47:58.223Z,6.80
2023-08-06T00:50:27.112Z,6.70
2023-08-06T00:52:55.392Z,6.50
2023-08-06T00:55:28.605Z,6.40
2023-08-06T00:57:57.993Z,6.50
2023-08-06T01:00:31.263Z,6.20
2023-08-06T01:02:59.291Z,6.80
2023-08-06T01:05:46.796Z,7.10
2023-08-06T01:08:23.764Z,6.40
2023-08-06T01:11:23.102Z,6.00
2023-08-06T01:14:21.159Z,6.70
2023-08-06T01:16:51.593Z,6.40
2023-08-06T01:19:25.424Z,6.20
2023-08-06T01:22:00.419Z,6.30
2023-08-06T01:24:37.815Z,6.60
2023-08-06T01:27:10.401Z,6.30
2023-08-06T01:29:51.879Z,6.20
2023-08-06T01:32:28.884Z,5.70
2023-08-06T01:35:03.696Z,6.00
2023-08-06T01:37:34.642Z,6.40
2023-08-06T01:40:11.499Z,5.90
2023-08-06T01:42:42.153Z,5.80
2023-08-06T01:45:14.372Z,6.10
2023-08-06T01:47:42.495Z,6.20
2023-08-06T01:50:21.713Z,5.90
2023-08-06T01:53:04.451Z,5.80
2023-08-06T01:55:36.302Z,5.60
2023-08-06T01:58:08.159Z,5.90
2023-08-06T02:00:51.247Z,5.70
2023-08-06T02:03:19.685Z,6.10
2023-08-06T02:05:59.414Z,5.90
2023-08-06T02:08:28.944Z,6.20
2023-08-06T02:10:57.202Z,6.00
2023-08-06T02:13:29.763Z,6.30
2023-08-06T02:16:00.219Z,6.40
2023-08-06T02:18:36.571Z,6.10
2023-08-06T02:21:09.456Z,6.40
2023-08-06T02:23:38.057Z,5.90
2023-08-06T02:26:20.246Z,6.00
2023-08-06T02:29:10.744Z,6.20
2023-08-06T02:31:46.534Z,5.90
2023-08-06T02:34:16.127Z,6.50
2023-08-06T02:36:47.988Z,6.20
2023-08-06T02:39:28.434Z,5.90
2023-08-06T02:42:02.339Z,6.00
2023-08-06T02:44:38.234Z,6.00
2023-08-06T02:47:11.912Z,5.70
2023-08-06T02:49:58.626Z,6.60
2023-08-06T02:52:29.653Z,6.00
2023-08-06T02:55:19.821Z,6.10
2023-08-06T02:57:55.194Z,6.00
2023-08-06T03:00:49.542Z,6.00
2023-08-06T03:03:55.237Z,6.40
2023-08-06T03:06:55.468Z,6.10
2023-08-06T03:09:49.136Z,6.30
2023-08-06T03:12:26.587Z,6.80
2023-08-06T03:15:24.240Z,6.20
2023-08-06T03:18:29.876Z,6.10
2023-08-06T03:21:06.753Z,6.20
2023-08-06T03:24:00.478Z,6.50
2023-08-06T03:26:46.316Z,6.40
2023-08-06T03:29:58.718Z,6.00
2023-08-06T03:32:55.697Z,5.70
2023-08-06T03:35:54.977Z,5.70
2023-08-06T03:38:58.458Z,6.30
2023-08-06T03:41:35.040Z,6.00
2023-08-06T03:44:15.706Z,6.10
2023-08-06T03:46:55.773Z,5.70
2023-08-06T03:49:31.099Z,5.80
2023-08-06T03:52:12.091Z,6.10
2023-08-06T03:54:55.924Z,6.00
2023-08-06T03:57:46.224Z,5.80
2023-08-06T04:00:21.458Z,5.90
2023-08-06T04:02:51.668Z,5.50
2023-08-06T04:05:23.342Z,5.70
2023-08-06T04:07:56.428Z,5.80
2023-08-06T04:10:49.276Z,5.60
2023-08-06T04:13:22.130Z,5.60
2023-08-06T04:15:50.041Z,5.20
2023-08-06T04:18:17.910Z,5.50
2023-08-06T04:20:47.067Z,5.00
2023-08-06T04:23:15.791Z,5.40
2023-08-06T04:25:48.882Z,5.20
2023-08-06T04:28:16.846Z,5.10
2023-08-06T04:31:13.355Z,5.00
2023-08-06T04:33:46.276Z,4.90
2023-08-06T04:36:26.874Z,4.80
2023-08-06T04:39:02.465Z,5.40
2023-08-06T04:41:40.112Z,4.90
2023-08-06T04:44:44.529Z,4.90
2023-08-06T04:47:18.783Z,4.80
2023-08-06T04:49:57.282Z,4.60
2023-08-06T04:52:38.179Z,4.80
2023-08-06T04:55:18.273Z,5.00
2023-08-06T04:57:48.604Z,4.70
2023-08-06T05:00:20.646Z,4.40
2023-08-06T05:02:59.118Z,4.60
2023-08-06T05:05:26.987Z,4.60
2023-08-06T05:08:02.090Z,4.60
2023-08-06T05:10:36.754Z,4.80
2023-08-06T05:13:52.440Z,4.70
2023-08-06T05:16:35.378Z,4.40
2023-08-06T05:19:08.831Z,4.70
2023-08-06T05:21:37.426Z,4.60
2023-08-06T05:24:06.615Z,4.60
2023-08-06T05:26:39.769Z,4.50
2023-08-06T05:29:13.713Z,4.50
2023-08-06T05:31:43.964Z,4.80
2023-08-06T05:34:12.318Z,4.60
2023-08-06T05:36:44.419Z,5.60
2023-08-06T05:39:12.970Z,4.30
2023-08-06T05:41:41.245Z,5.70
2023-08-06T05:44:22.737Z,4.50
2023-08-06T05:46:55.721Z,4.50
2023-08-06T05:49:25.330Z,4.40
2023-08-06T05:51:55.071Z,4.50
2023-08-06T05:54:32.842Z,4.40
2023-08-06T05:57:00.717Z,4.90
2023-08-06T05:59:30.829Z,4.40
2023-08-06T06:02:15.035Z,4.60
2023-08-06T06:04:46.212Z,4.50
2023-08-06T06:07:16.519Z,4.90
2023-08-06T06:09:44.626Z,4.90
2023-08-06T06:12:17.513Z,4.80
2023-08-06T06:14:51.345Z,5.20
2023-08-06T06:17:22.072Z,4.90
2023-08-06T06:19:50.125Z,5.00
2023-08-06T06:22:18.734Z,4.80
2023-08-06T06:24:46.578Z,4.60
2023-08-06T06:27:14.453Z,4.60
2023-08-06T06:29:52.557Z,4.60
2023-08-06T06:32:27.826Z,4.70
2023-08-06T06:34:55.980Z,4.50
2023-08-06T06:37:55.224Z,4.90
2023-08-06T06:40:51.335Z,5.30
2023-08-06T06:43:19.890Z,5.10
2023-08-06T06:45:47.882Z,4.80
2023-08-06T06:48:16.035Z,4.50
2023-08-06T06:50:45.051Z,5.00
2023-08-06T06:53:13.107Z,4.80
2023-08-06T06:55:41.493Z,4.40
2023-08-06T06:58:09.867Z,4.60
2023-08-06T07:00:39.173Z,4.40
2023-08-06T07:03:11.240Z,4.30
2023-08-06T07:05:39.231Z,4.50
2023-08-06T07:08:09.440Z,4.70
2023-08-06T07:10:37.303Z,4.40
2023-08-06T07:13:12.233Z,4.30
2023-08-06T07:15:40.314Z,4.20
2023-08-06T07:18:08.579Z,4.40
2023-08-06T07:20:36.460Z,5.40
2023-08-06T07:23:05.517Z,4.60
2023-08-06T07:25:34.547Z,4.10
2023-08-06T07:28:03.736Z,4.50
2023-08-06T07:30:40.334Z,4.60
2023-08-06T07:33:08.485Z,4.40
2023-08-06T07:35:41.278Z,4.30
2023-08-06T07:38:10.571Z,6.40
2023-08-06T07:40:38.954Z,4.30
2023-08-06T07:43:06.970Z,4.00
2023-08-06T07:45:40.632Z,4.60
2023-08-06T07:48:08.532Z,4.30
2023-08-06T07:50:36.463Z,4.60
2023-08-06T07:53:05.051Z,4.50
2023-08-06T07:55:46.303Z,4.40
2023-08-06T07:58:16.452Z,4.40
2023-08-06T08:00:51.613Z,4.20
2023-08-06T08:03:25.430Z,3.60
2023-08-06T08:05:57.672Z,3.80
2023-08-06T08:08:28.198Z,3.80
2023-08-06T08:10:56.810Z,3.80
2023-08-06T08:13:29.580Z,3.60
2023-08-06T08:16:00.611Z,3.60
2023-08-06T08:18:32.982Z,3.60
2023-08-06T08:21:01.476Z,3.50
2023-08-06T08:26:10.002Z,3.70
2023-08-06T08:28:42.812Z,3.50
2023-08-06T08:31:25.090Z,3.60
2023-08-06T08:33:55.876Z,3.20
2023-08-06T08:36:33.436Z,3.80
2023-08-06T08:39:08.660Z,3.40
2023-08-06T08:41:47.901Z,3.20
2023-08-06T08:44:30.615Z,3.50
2023-08-06T08:47:20.619Z,3.50
2023-08-06T08:49:49.460Z,3.20
2023-08-06T08:52:17.469Z,3.20
2023-08-06T08:54:45.345Z,3.80
2023-08-06T08:57:18.011Z,3.10
2023-08-06T09:00:03.906Z,3.20
2023-08-06T09:02:36.285Z,2.90
2023-08-06T09:05:05.058Z,2.80
2023-08-06T09:07:56.284Z,2.80
2023-08-06T09:10:27.570Z,3.20
2023-08-06T09:13:03.076Z,3.10
2023-08-06T09:15:38.059Z,2.70
2023-08-06T09:18:15.175Z,2.80
2023-08-06T09:20:43.865Z,3.10
2023-08-06T09:23:11.899Z,3.30
2023-08-06T09:25:48.226Z,2.90
2023-08-06T09:28:23.876Z,3.30
2023-08-06T09:30:57.194Z,3.00
2023-08-06T09:33:34.154Z,2.90
2023-08-06T09:36:22.513Z,4.60
2023-08-06T09:38:50.375Z,6.90
2023-08-06T09:41:31.044Z,2.80
2023-08-06T09:44:01.158Z,2.80
2023-08-06T09:46:29.848Z,2.90
2023-08-06T09:48:58.434Z,2.90
2023-08-06T09:51:36.769Z,6.50
2023-08-06T09:54:27.453Z,2.80
2023-08-06T09:56:57.815Z,3.30
2023-08-06T09:59:30.968Z,3.00
2023-08-06T10:01:59.878Z,3.00
2023-08-06T10:04:43.201Z,2.70
2023-08-06T10:07:19.277Z,3.20
2023-08-06T10:09:47.716Z,2.90
2023-08-06T10:12:15.711Z,2.60
2023-08-06T10:15:03.158Z,2.80
2023-08-06T10:17:45.224Z,3.00
2023-08-06T10:22:15.674Z,2.70
2023-08-06T10:24:50.480Z,2.90
2023-08-06T10:27:39.978Z,2.60
2023-08-06T10:30:28.039Z,2.70
2023-08-06T10:32:59.237Z,2.60
2023-08-06T10:35:55.936Z,2.50
2023-08-06T10:38:37.718Z,2.80
2023-08-06T10:41:12.964Z,2.80
2023-08-06T10:43:41.642Z,3.10
2023-08-06T10:46:28.672Z,2.50
2023-08-06T10:48:59.899Z,2.80
2023-08-06T10:51:37.354Z,2.80
2023-08-06T10:54:17.446Z,2.80
2023-08-06T10:56:50.602Z,3.00
2023-08-06T10:59:27.026Z,2.60
2023-08-06T11:01:56.279Z,2.70
2023-08-06T11:04:32.064Z,2.60
2023-08-06T11:06:59.930Z,3.40
2023-08-06T11:09:48.686Z,2.50
2023-08-06T11:12:25.450Z,2.50
2023-08-06T11:15:00.720Z,2.20
2023-08-06T11:17:34.089Z,2.40
2023-08-06T11:20:07.509Z,2.90
2023-08-06T11:22:43.871Z,2.90
2023-08-06T11:25:19.112Z,2.90
2023-08-06T11:27:58.600Z,2.70
2023-08-06T11:30:40.599Z,2.20
2023-08-06T11:33:08.847Z,2.60
2023-08-06T11:35:37.333Z,2.60
2023-08-06T11:38:07.349Z,2.40
2023-08-06T11:40:47.695Z,2.20
2023-08-06T11:43:15.664Z,2.80
2023-08-06T11:45:45.705Z,2.40
2023-08-06T11:48:25.954Z,2.60
2023-08-06T11:50:58.646Z,2.40
2023-08-06T11:53:28.907Z,2.40
2023-08-06T11:56:04.906Z,2.30
2023-08-06T11:58:42.050Z,2.10
2023-08-06T12:01:18.458Z,1.90
2023-08-06T12:03:52.515Z,2.20
2023-08-06T12:06:30.607Z,2.00
2023-08-06T12:09:15.270Z,2.10
2023-08-06T12:11:46.687Z,2.30
2023-08-06T12:14:19.779Z,1.90
2023-08-06T12:16:50.527Z,2.10
2023-08-06T12:19:27.810Z,2.00
2023-08-06T12:22:02.163Z,2.20
2023-08-06T12:24:37.568Z,2.10
2023-08-06T12:27:15.324Z,2.10
2023-08-06T12:29:54.680Z,2.10
2023-08-06T12:32:30.732Z,2.40
2023-08-06T12:34:58.637Z,2.30
2023-08-06T12:37:30.775Z,2.20
2023-08-06T12:40:28.817Z,2.00
2023-08-06T12:43:01.096Z,1.90
2023-08-06T12:45:28.969Z,2.30
2023-08-06T12:47:57.226Z,3.00
2023-08-06T12:50:29.879Z,2.20
2023-08-06T12:53:00.527Z,2.30
2023-08-06T12:55:41.936Z,2.20
2023-08-06T12:58:10.701Z,2.30
2023-08-06T13:03:32.284Z,2.70
2023-08-06T13:06:21.429Z,2.40
2023-08-06T13:08:49.732Z,2.30
2023-08-06T13:11:20.584Z,2.30
2023-08-06T13:14:00.731Z,2.40
2023-08-06T13:16:33.248Z,2.10
2023-08-06T13:19:06.784Z,1.90
2023-08-06T13:22:05.257Z,1.90
2023-08-06T13:24:38.189Z,2.10
2023-08-06T13:27:11.360Z,1.80
2023-08-06T13:29:49.120Z,2.10
2023-08-06T13:32:22.678Z,2.00
2023-08-06T13:34:53.933Z,1.90
2023-08-06T13:37:29.688Z,2.70
2023-08-06T13:39:57.740Z,2.10
2023-08-06T13:42:26.076Z,2.30
2023-08-06T13:45:15.827Z,2.10
2023-08-06T13:47:49.048Z,2.40
2023-08-06T13:50:18.901Z,2.30
2023-08-06T13:52:59.058Z,2.20
2023-08-06T13:55:34.135Z,2.00
2023-08-06T13:58:04.845Z,2.00
2023-08-06T14:00:39.968Z,2.90
2023-08-06T14:03:28.356Z,2.80
2023-08-06T14:05:59.094Z,2.50
2023-08-06T14:08:26.942Z,2.20
2023-08-06T14:10:54.815Z,2.00
2023-08-06T14:13:23.188Z,2.00
2023-08-06T14:15:56.628Z,2.50
2023-08-06T14:18:24.490Z,2.10
2023-08-06T14:20:52.205Z,2.00
2023-08-06T14:23:19.977Z,2.00
2023-08-06T14:26:12.194Z,2.40
2023-08-06T14:28:43.080Z,1.80
2023-08-06T14:31:18.718Z,2.30
2023-08-06T14:33:46.643Z,2.20
2023-08-06T14:36:14.325Z,2.00
2023-08-06T14:38:53.985Z,1.80
2023-08-06T14:41:26.089Z,1.90
2023-08-06T14:43:55.115Z,2.10
2023-08-06T14:46:30.815Z,1.60
2023-08-06T14:49:04.466Z,1.70
2023-08-06T14:51:35.661Z,1.80
2023-08-06T14:54:08.501Z,1.80
2023-08-06T14:56:36.377Z,2.10
2023-08-06T14:59:04.666Z,1.70
2023-08-06T15:01:32.431Z,1.90
2023-08-06T15:04:03.591Z,1.90
2023-08-06T15:06:37.405Z,1.70
2023-08-06T15:09:05.168Z,1.90
2023-08-06T15:11:33.090Z,2.00
2023-08-06T15:14:04.151Z,2.00
2023-08-06T15:16:37.943Z,1.90
2023-08-06T15:19:05.767Z,2.10
2023-08-06T15:21:33.686Z,2.30
2023-08-06T15:24:04.402Z,2.40
2023-08-06T15:26:32.106Z,2.30
2023-08-06T15:28:59.939Z,2.40
2023-08-06T15:31:36.859Z,2.30
2023-08-06T15:34:06.808Z,2.80
2023-08-06T15:36:36.826Z,2.40
2023-08-06T15:39:07.599Z,2.50
2023-08-06T15:41:42.556Z,2.70
2023-08-06T15:44:18.928Z,2.60
2023-08-06T15:46:46.688Z,2.70
2023-08-06T15:49:24.878Z,2.70
2023-08-06T15:51:56.517Z,2.50
2023-08-06T15:54:24.208Z,2.30
2023-08-06T15:56:51.999Z,2.40
2023-08-06T15:59:32.291Z,2.80
2023-08-06T16:02:08.456Z,2.60
2023-08-06T16:04:42.383Z,2.50
2023-08-06T16:07:10.222Z,2.50
2023-08-06T16:09:38.084Z,2.40
2023-08-06T16:12:18.571Z,2.30
2023-08-06T16:14:47.292Z,2.60
2023-08-06T16:17:29.908Z,2.60
2023-08-06T16:20:00.325Z,2.80
2023-08-06T16:22:43.328Z,3.30
2023-08-06T16:25:22.200Z,3.60
2023-08-06T16:27:51.348Z,3.20
2023-08-06T16:30:24.410Z,3.50
2023-08-06T16:32:57.395Z,3.50
2023-08-06T16:35:27.648Z,3.70
2023-08-06T16:38:01.836Z,3.70
2023-08-06T16:40:37.333Z,3.70
2023-08-06T16:43:10.824Z,3.80
2023-08-06T16:45:43.446Z,3.90
2023-08-06T16:48:11.153Z,4.20
2023-08-06T16:50:43.784Z,4.10
2023-08-06T16:53:13.674Z,3.80
2023-08-06T16:55:41.362Z,3.90
2023-08-06T16:58:09.127Z,4.30
2023-08-06T17:00:36.864Z,3.60
2023-08-06T17:03:05.027Z,4.10
2023-08-06T17:05:33.061Z,4.40
2023-08-06T17:08:01.277Z,4.10
2023-08-06T17:10:31.284Z,4.10
2023-08-06T17:13:20.077Z,4.00
2023-08-06T17:15:55.981Z,3.70
2023-08-06T17:18:28.609Z,4.20
2023-08-06T17:20:57.072Z,4.40
2023-08-06T17:23:24.807Z,4.10
2023-08-06T17:25:54.231Z,4.50
2023-08-06T17:28:21.923Z,4.30
2023-08-06T17:30:51.830Z,4.40
2023-08-06T17:33:19.580Z,4.00
2023-08-06T17:35:47.384Z,4.40
2023-08-06T17:38:15.062Z,4.00
2023-08-06T17:40:43.813Z,4.00
2023-08-06T17:43:12.803Z,3.60
2023-08-06T17:45:40.511Z,4.00
2023-08-06T17:48:08.228Z,3.90
2023-08-06T17:50:35.926Z,3.90
2023-08-06T17:53:03.693Z,3.60
2023-08-06T17:55:40.708Z,4.20
2023-08-06T17:58:14.127Z,3.90
2023-08-06T18:00:44.155Z,4.40
2023-08-06T18:03:18.670Z,4.20
2023-08-06T18:05:58.388Z,4.10
2023-08-06T18:08:31.805Z,3.80
2023-08-06T18:11:05.235Z,4.40
2023-08-06T18:13:32.940Z,3.90
2023-08-06T18:16:02.893Z,3.80
2023-08-06T18:18:31.292Z,4.10
2023-08-06T18:20:59.275Z,3.80
2023-08-06T18:23:27.322Z,4.10
2023-08-06T18:25:57.581Z,3.90
2023-08-06T18:28:27.550Z,3.90
2023-08-06T18:30:55.402Z,3.90
2023-08-06T18:33:28.236Z,4.20
2023-08-06T18:35:59.685Z,3.90
2023-08-06T18:38:27.825Z,4.20
2023-08-06T18:40:59.488Z,4.20
2023-08-06T18:43:29.462Z,4.50
2023-08-06T18:45:57.768Z,4.50
2023-08-06T18:48:26.065Z,5.10
2023-08-06T18:50:57.548Z,4.40
2023-08-06T18:53:39.460Z,5.40
2023-08-06T18:56:07.217Z,5.30
2023-08-06T18:58:38.045Z,5.90
2023-08-06T19:01:05.749Z,5.70
2023-08-06T19:03:36.246Z,6.00
2023-08-06T19:06:05.846Z,6.10
2023-08-06T19:08:33.677Z,6.10
2023-08-06T19:11:01.485Z,6.20
2023-08-06T19:13:35.037Z,6.70
2023-08-06T19:16:03.960Z,6.00
2023-08-06T19:18:36.097Z,6.40
2023-08-06T19:21:03.885Z,7.00
2023-08-06T19:23:33.816Z,6.30
2023-08-06T19:26:03.412Z,7.10
2023-08-06T19:28:31.430Z,7.30
2023-08-06T19:31:04.476Z,7.40
2023-08-06T19:33:32.279Z,7.70
2023-08-06T19:36:00.158Z,8.20
2023-08-06T19:38:27.896Z,9.00
2023-08-06T19:41:06.616Z,8.80
2023-08-06T19:43:37.080Z,8.60
2023-08-06T19:46:09.866Z,9.30
2023-08-06T19:48:43.377Z,8.40
2023-08-06T19:51:13.311Z,9.30
2023-08-06T19:53:43.849Z,8.80
2023-08-06T19:56:11.656Z,9.60
2023-08-06T19:58:41.616Z,9.40
2023-08-06T20:01:14.602Z,9.30
2023-08-06T20:03:48.423Z,9.00
2023-08-06T20:06:20.828Z,9.70
2023-08-06T20:08:48.557Z,9.50
2023-08-06T20:11:24.502Z,9.60
2023-08-06T20:13:52.349Z,9.90
2023-08-06T20:16:20.085Z,10.10
2023-08-06T20:18:47.840Z,10.00
2023-08-06T20:21:15.571Z,9.80
2023-08-06T20:23:51.121Z,9.90
2023-08-06T20:26:18.841Z,9.70
2023-08-06T20:28:51.425Z,9.70
2023-08-06T20:33:55.807Z,9.40
2023-08-06T20:36:29.712Z,9.10
2023-08-06T20:38:58.444Z,9.10
2023-08-06T20:41:35.130Z,8.70
2023-08-06T20:46:35.440Z,8.70
2023-08-06T20:49:03.163Z,8.60
2023-08-06T20:51:35.817Z,9.20
2023-08-06T20:54:09.272Z,8.40
2023-08-06T20:56:37.225Z,7.90
2023-08-06T20:59:05.666Z,8.30
2023-08-06T21:01:33.552Z,8.10
2023-08-06T21:04:01.239Z,7.40
2023-08-06T21:06:33.830Z,7.30
2023-08-06T21:11:44.014Z,7.80
2023-08-06T21:14:16.726Z,7.00
2023-08-06T21:16:44.787Z,6.70
2023-08-06T21:19:18.237Z,6.80
2023-08-06T21:21:47.430Z,6.30
2023-08-06T21:24:17.562Z,6.80
2023-08-06T21:26:45.250Z,6.70
2023-08-06T21:29:18.072Z,6.20
2023-08-06T21:34:17.134Z,6.30
2023-08-06T21:36:55.980Z,6.20
2023-08-06T21:39:23.802Z,6.20
2023-08-06T21:41:56.756Z,6.10
2023-08-06T21:44:26.525Z,6.00
2023-08-06T21:46:54.298Z,5.40
2023-08-06T21:49:29.417Z,5.80
2023-08-06T21:52:10.152Z,5.70
2023-08-06T21:54:40.275Z,6.00
2023-08-06T21:57:12.329Z,5.40
2023-08-06T21:59:43.481Z,5.80
2023-08-06T22:02:16.110Z,6.10
2023-08-06T22:04:48.730Z,6.10
2023-08-06T22:07:16.600Z,5.60
2023-08-06T22:09:58.260Z,5.60
2023-08-06T22:12:26.012Z,6.00
2023-08-06T22:14:54.981Z,6.30
2023-08-06T22:17:35.214Z,5.70
2023-08-06T22:20:06.300Z,5.90
2023-08-06T22:22:40.581Z,6.20
2023-08-06T22:25:14.396Z,5.80
2023-08-06T22:27:47.371Z,6.30
2023-08-06T22:30:15.985Z,5.70
2023-08-06T22:32:48.777Z,5.50
2023-08-06T22:35:18.145Z,5.60
2023-08-06T22:39:31.083Z,6.40
2023-08-06T22:42:01.192Z,6.10
2023-08-06T22:44:29.062Z,6.10
2023-08-06T22:47:01.856Z,6.40
2023-08-06T22:49:39.643Z,6.30
2023-08-06T22:52:24.304Z,6.30
2023-08-06T22:55:11.607Z,6.50
2023-08-06T22:57:49.219Z,6.80
2023-08-06T23:00:22.127Z,6.30
2023-08-06T23:03:09.063Z,6.60
2023-08-06T23:05:38.855Z,6.70
2023-08-06T23:08:07.093Z,6.50
2023-08-06T23:10:36.212Z,6.40
2023-08-06T23:13:10.128Z,6.40
2023-08-06T23:15:38.228Z,6.30
2023-08-06T23:18:06.274Z,6.60
2023-08-06T23:20:35.590Z,6.40
2023-08-06T23:23:24.747Z,6.10
2023-08-06T23:25:52.612Z,6.50
2023-08-06T23:31:09.711Z,6.60
2023-08-06T23:33:44.387Z,6.40
2023-08-06T23:36:12.757Z,6.90
2023-08-06T23:38:40.725Z,6.60
2023-08-06T23:41:13.835Z,6.30
2023-08-06T23:44:08.713Z,6.10
2023-08-06T23:46:42.741Z,6.40
2023-08-06T23:49:12.545Z,6.00
2023-08-06T23:51:44.214Z,6.20
2023-08-06T23:54:26.506Z,6.70
2023-08-06T23:56:58.786Z,6.50
2023-08-06T23:59:42.134Z,6.70
